sensor_id;sensor_type;location;lat;lon;timestamp;P1;durP1;ratioP1;P2;durP2;ratioP2
35632;SDS011;21754;48.216;-1.628;2023-04-08T00:00:09;8.27;;;3.20;;
35632;SDS011;21754;48.216;-1.628;2023-04-08T00:02:36;5.47;;;3.72;;
35632;SDS011;21754;48.216;-1.628;2023-04-08T00:05:02;3.78;;;2.35;;
35632;SDS011;21754;48.216;-1.628;2023-04-08T00:07:28;5.35;;;2.88;;
35632;SDS011;21754;48.216;-1.628;2023-04-08T00:09:54;4.45;;;2.72;;
35632;SDS011;21754;48.216;-1.628;2023-04-08T00:12:20;6.60;;;2.85;;
35632;SDS011;21754;48.216;-1.628;2023-04-08T00:14:46;9.05;;;2.92;;
35632;SDS011;21754;48.216;-1.628;2023-04-08T00:17:12;4.30;;;3.15;;
35632;SDS011;21754;48.216;-1.628;2023-04-08T00:19:38;3.83;;;2.67;;
35632;SDS011;21754;48.216;-1.628;2023-04-08T00:22:04;3.60;;;2.97;;
35632;SDS011;21754;48.216;-1.628;2023-04-08T00:24:31;3.65;;;2.65;;
35632;SDS011;21754;48.216;-1.628;2023-04-08T00:26:57;3.33;;;2.95;;
35632;SDS011;21754;48.216;-1.628;2023-04-08T00:29:22;4.30;;;2.53;;
35632;SDS011;21754;48.216;-1.628;2023-04-08T00:31:48;3.17;;;2.90;;
35632;SDS011;21754;48.216;-1.628;2023-04-08T00:34:15;2.75;;;2.55;;
35632;SDS011;21754;48.216;-1.628;2023-04-08T00:36:41;7.20;;;2.85;;
35632;SDS011;21754;48.216;-1.628;2023-04-08T00:39:07;3.55;;;2.80;;
35632;SDS011;21754;48.216;-1.628;2023-04-08T00:41:33;6.13;;;3.13;;
35632;SDS011;21754;48.216;-1.628;2023-04-08T00:44:00;3.22;;;2.38;;
35632;SDS011;21754;48.216;-1.628;2023-04-08T00:46:26;2.90;;;2.70;;
35632;SDS011;21754;48.216;-1.628;2023-04-08T00:48:53;4.60;;;2.38;;
35632;SDS011;21754;48.216;-1.628;2023-04-08T00:51:19;4.57;;;3.20;;
35632;SDS011;21754;48.216;-1.628;2023-04-08T00:53:45;3.83;;;2.70;;
35632;SDS011;21754;48.216;-1.628;2023-04-08T00:56:11;3.08;;;2.80;;
35632;SDS011;21754;48.216;-1.628;2023-04-08T00:58:37;2.72;;;2.53;;
35632;SDS011;21754;48.216;-1.628;2023-04-08T01:01:19;7.65;;;2.95;;
35632;SDS011;21754;48.216;-1.628;2023-04-08T01:03:57;3.60;;;3.30;;
35632;SDS011;21754;48.216;-1.628;2023-04-08T01:08:55;3.28;;;2.78;;
35632;SDS011;21754;48.216;-1.628;2023-04-08T01:11:23;3.33;;;2.88;;
35632;SDS011;21754;48.216;-1.628;2023-04-08T01:13:50;2.67;;;2.47;;
35632;SDS011;21754;48.216;-1.628;2023-04-08T01:16:19;4.60;;;2.53;;
35632;SDS011;21754;48.216;-1.628;2023-04-08T01:18:46;10.55;;;3.05;;
35632;SDS011;21754;48.216;-1.628;2023-04-08T01:21:13;5.05;;;2.83;;
35632;SDS011;21754;48.216;-1.628;2023-04-08T01:26:26;3.95;;;2.88;;
35632;SDS011;21754;48.216;-1.628;2023-04-08T01:28:52;4.88;;;2.90;;
35632;SDS011;21754;48.216;-1.628;2023-04-08T01:31:19;4.67;;;2.80;;
35632;SDS011;21754;48.216;-1.628;2023-04-08T01:33:47;3.17;;;2.92;;
35632;SDS011;21754;48.216;-1.628;2023-04-08T01:36:13;3.10;;;2.70;;
35632;SDS011;21754;48.216;-1.628;2023-04-08T01:38:40;4.32;;;3.78;;
35632;SDS011;21754;48.216;-1.628;2023-04-08T01:41:07;3.97;;;3.08;;
35632;SDS011;21754;48.216;-1.628;2023-04-08T01:43:33;5.68;;;3.05;;
35632;SDS011;21754;48.216;-1.628;2023-04-08T01:46:00;4.25;;;3.08;;
35632;SDS011;21754;48.216;-1.628;2023-04-08T01:48:26;3.22;;;2.90;;
35632;SDS011;21754;48.216;-1.628;2023-04-08T01:50:53;4.35;;;3.28;;
35632;SDS011;21754;48.216;-1.628;2023-04-08T01:53:20;7.40;;;2.55;;
35632;SDS011;21754;48.216;-1.628;2023-04-08T01:55:47;6.00;;;3.53;;
35632;SDS011;21754;48.216;-1.628;2023-04-08T01:58:17;3.85;;;3.20;;
35632;SDS011;21754;48.216;-1.628;2023-04-08T02:00:44;4.00;;;3.28;;
35632;SDS011;21754;48.216;-1.628;2023-04-08T02:03:11;3.55;;;3.00;;
35632;SDS011;21754;48.216;-1.628;2023-04-08T02:05:38;4.60;;;3.08;;
35632;SDS011;21754;48.216;-1.628;2023-04-08T02:08:04;5.28;;;3.15;;
35632;SDS011;21754;48.216;-1.628;2023-04-08T02:10:30;8.15;;;2.78;;
35632;SDS011;21754;48.216;-1.628;2023-04-08T02:12:56;3.40;;;3.13;;
35632;SDS011;21754;48.216;-1.628;2023-04-08T02:15:22;4.35;;;4.05;;
35632;SDS011;21754;48.216;-1.628;2023-04-08T02:17:51;8.27;;;3.88;;
35632;SDS011;21754;48.216;-1.628;2023-04-08T02:20:42;3.75;;;3.10;;
35632;SDS011;21754;48.216;-1.628;2023-04-08T02:23:18;6.03;;;2.78;;
35632;SDS011;21754;48.216;-1.628;2023-04-08T02:25:45;6.32;;;3.17;;
35632;SDS011;21754;48.216;-1.628;2023-04-08T02:28:12;5.93;;;3.80;;
35632;SDS011;21754;48.216;-1.628;2023-04-08T02:30:42;3.10;;;2.60;;
35632;SDS011;21754;48.216;-1.628;2023-04-08T02:33:08;3.70;;;3.40;;
35632;SDS011;21754;48.216;-1.628;2023-04-08T02:35:36;4.18;;;3.03;;
35632;SDS011;21754;48.216;-1.628;2023-04-08T02:38:03;6.72;;;3.38;;
35632;SDS011;21754;48.216;-1.628;2023-04-08T02:40:29;3.55;;;3.22;;
35632;SDS011;21754;48.216;-1.628;2023-04-08T02:42:56;4.57;;;4.18;;
35632;SDS011;21754;48.216;-1.628;2023-04-08T02:45:24;5.82;;;3.35;;
35632;SDS011;21754;48.216;-1.628;2023-04-08T02:47:52;6.85;;;3.92;;
35632;SDS011;21754;48.216;-1.628;2023-04-08T02:50:18;3.70;;;3.25;;
35632;SDS011;21754;48.216;-1.628;2023-04-08T02:52:44;4.85;;;3.95;;
35632;SDS011;21754;48.216;-1.628;2023-04-08T02:55:10;4.60;;;2.97;;
35632;SDS011;21754;48.216;-1.628;2023-04-08T02:57:37;5.18;;;3.30;;
35632;SDS011;21754;48.216;-1.628;2023-04-08T03:02:30;3.47;;;2.85;;
35632;SDS011;21754;48.216;-1.628;2023-04-08T03:04:56;3.83;;;3.13;;
35632;SDS011;21754;48.216;-1.628;2023-04-08T03:07:22;3.53;;;3.15;;
35632;SDS011;21754;48.216;-1.628;2023-04-08T03:09:48;4.65;;;3.65;;
35632;SDS011;21754;48.216;-1.628;2023-04-08T03:12:14;4.18;;;3.70;;
35632;SDS011;21754;48.216;-1.628;2023-04-08T03:14:40;4.03;;;3.05;;
35632;SDS011;21754;48.216;-1.628;2023-04-08T03:17:06;3.60;;;2.88;;
35632;SDS011;21754;48.216;-1.628;2023-04-08T03:19:32;2.90;;;2.70;;
35632;SDS011;21754;48.216;-1.628;2023-04-08T03:21:58;3.65;;;2.72;;
35632;SDS011;21754;48.216;-1.628;2023-04-08T03:24:24;3.55;;;2.97;;
35632;SDS011;21754;48.216;-1.628;2023-04-08T03:26:50;5.40;;;2.85;;
35632;SDS011;21754;48.216;-1.628;2023-04-08T03:29:16;6.07;;;3.58;;
35632;SDS011;21754;48.216;-1.628;2023-04-08T03:31:42;3.58;;;3.28;;
35632;SDS011;21754;48.216;-1.628;2023-04-08T03:34:08;4.22;;;3.15;;
35632;SDS011;21754;48.216;-1.628;2023-04-08T03:36:34;7.13;;;3.33;;
35632;SDS011;21754;48.216;-1.628;2023-04-08T03:39:00;3.75;;;3.45;;
35632;SDS011;21754;48.216;-1.628;2023-04-08T03:41:27;3.75;;;3.45;;
35632;SDS011;21754;48.216;-1.628;2023-04-08T03:43:53;3.35;;;3.10;;
35632;SDS011;21754;48.216;-1.628;2023-04-08T03:46:19;3.33;;;3.08;;
35632;SDS011;21754;48.216;-1.628;2023-04-08T03:48:46;2.63;;;2.42;;
35632;SDS011;21754;48.216;-1.628;2023-04-08T03:51:12;3.30;;;3.00;;
35632;SDS011;21754;48.216;-1.628;2023-04-08T03:53:38;5.43;;;3.28;;
35632;SDS011;21754;48.216;-1.628;2023-04-08T03:56:05;4.50;;;3.17;;
35632;SDS011;21754;48.216;-1.628;2023-04-08T03:58:31;3.75;;;3.38;;
35632;SDS011;21754;48.216;-1.628;2023-04-08T04:00:57;3.40;;;3.10;;
35632;SDS011;21754;48.216;-1.628;2023-04-08T04:03:23;2.72;;;2.53;;
35632;SDS011;21754;48.216;-1.628;2023-04-08T04:05:49;6.80;;;2.97;;
35632;SDS011;21754;48.216;-1.628;2023-04-08T04:08:15;3.60;;;3.22;;
35632;SDS011;21754;48.216;-1.628;2023-04-08T04:10:41;3.42;;;3.08;;
35632;SDS011;21754;48.216;-1.628;2023-04-08T04:13:07;3.17;;;2.97;;
35632;SDS011;21754;48.216;-1.628;2023-04-08T04:15:36;3.78;;;3.15;;
35632;SDS011;21754;48.216;-1.628;2023-04-08T04:18:03;3.80;;;2.53;;
35632;SDS011;21754;48.216;-1.628;2023-04-08T04:20:29;5.00;;;2.97;;
35632;SDS011;21754;48.216;-1.628;2023-04-08T04:22:55;4.40;;;2.88;;
35632;SDS011;21754;48.216;-1.628;2023-04-08T04:25:21;6.78;;;3.13;;
35632;SDS011;21754;48.216;-1.628;2023-04-08T04:27:47;3.83;;;3.53;;
35632;SDS011;21754;48.216;-1.628;2023-04-08T04:30:13;3.45;;;2.92;;
35632;SDS011;21754;48.216;-1.628;2023-04-08T04:32:42;4.18;;;3.35;;
35632;SDS011;21754;48.216;-1.628;2023-04-08T04:35:09;11.80;;;3.17;;
35632;SDS011;21754;48.216;-1.628;2023-04-08T04:37:35;3.67;;;3.38;;
35632;SDS011;21754;48.216;-1.628;2023-04-08T04:40:01;5.38;;;2.67;;
35632;SDS011;21754;48.216;-1.628;2023-04-08T04:42:27;5.72;;;2.97;;
35632;SDS011;21754;48.216;-1.628;2023-04-08T04:44:53;5.90;;;3.35;;
35632;SDS011;21754;48.216;-1.628;2023-04-08T04:47:19;5.45;;;3.65;;
35632;SDS011;21754;48.216;-1.628;2023-04-08T04:49:45;3.63;;;2.42;;
35632;SDS011;21754;48.216;-1.628;2023-04-08T04:52:12;4.75;;;3.00;;
35632;SDS011;21754;48.216;-1.628;2023-04-08T04:54:38;3.42;;;2.88;;
35632;SDS011;21754;48.216;-1.628;2023-04-08T04:57:04;6.82;;;3.20;;
35632;SDS011;21754;48.216;-1.628;2023-04-08T04:59:30;2.90;;;2.55;;
35632;SDS011;21754;48.216;-1.628;2023-04-08T05:01:56;6.32;;;4.35;;
35632;SDS011;21754;48.216;-1.628;2023-04-08T05:04:22;6.93;;;2.80;;
35632;SDS011;21754;48.216;-1.628;2023-04-08T05:06:48;3.55;;;3.17;;
35632;SDS011;21754;48.216;-1.628;2023-04-08T05:09:14;3.22;;;2.92;;
35632;SDS011;21754;48.216;-1.628;2023-04-08T05:11:40;4.00;;;3.35;;
35632;SDS011;21754;48.216;-1.628;2023-04-08T05:14:06;4.25;;;3.65;;
35632;SDS011;21754;48.216;-1.628;2023-04-08T05:16:32;3.25;;;2.92;;
35632;SDS011;21754;48.216;-1.628;2023-04-08T05:18:58;4.20;;;3.80;;
35632;SDS011;21754;48.216;-1.628;2023-04-08T05:21:24;3.53;;;3.22;;
35632;SDS011;21754;48.216;-1.628;2023-04-08T05:23:51;6.28;;;3.00;;
35632;SDS011;21754;48.216;-1.628;2023-04-08T05:26:18;5.15;;;3.05;;
35632;SDS011;21754;48.216;-1.628;2023-04-08T05:28:45;5.43;;;2.95;;
35632;SDS011;21754;48.216;-1.628;2023-04-08T05:31:14;6.53;;;2.85;;
35632;SDS011;21754;48.216;-1.628;2023-04-08T05:33:40;5.03;;;3.40;;
35632;SDS011;21754;48.216;-1.628;2023-04-08T05:36:06;4.40;;;3.38;;
35632;SDS011;21754;48.216;-1.628;2023-04-08T05:38:32;4.38;;;3.97;;
35632;SDS011;21754;48.216;-1.628;2023-04-08T05:40:58;4.53;;;3.63;;
35632;SDS011;21754;48.216;-1.628;2023-04-08T05:43:24;6.70;;;3.50;;
35632;SDS011;21754;48.216;-1.628;2023-04-08T05:45:50;6.90;;;3.78;;
35632;SDS011;21754;48.216;-1.628;2023-04-08T05:48:16;5.53;;;4.03;;
35632;SDS011;21754;48.216;-1.628;2023-04-08T05:50:42;5.10;;;3.88;;
35632;SDS011;21754;48.216;-1.628;2023-04-08T05:53:08;6.72;;;4.03;;
35632;SDS011;21754;48.216;-1.628;2023-04-08T05:55:35;8.15;;;3.80;;
35632;SDS011;21754;48.216;-1.628;2023-04-08T05:58:01;8.38;;;4.35;;
35632;SDS011;21754;48.216;-1.628;2023-04-08T06:00:27;4.85;;;3.53;;
35632;SDS011;21754;48.216;-1.628;2023-04-08T06:02:53;6.20;;;3.70;;
35632;SDS011;21754;48.216;-1.628;2023-04-08T06:05:19;5.60;;;3.97;;
35632;SDS011;21754;48.216;-1.628;2023-04-08T06:07:45;6.25;;;4.05;;
35632;SDS011;21754;48.216;-1.628;2023-04-08T06:10:11;8.90;;;3.83;;
35632;SDS011;21754;48.216;-1.628;2023-04-08T06:12:37;6.63;;;4.35;;
35632;SDS011;21754;48.216;-1.628;2023-04-08T06:15:04;4.82;;;4.30;;
35632;SDS011;21754;48.216;-1.628;2023-04-08T06:17:30;5.93;;;4.93;;
35632;SDS011;21754;48.216;-1.628;2023-04-08T06:19:56;5.85;;;4.30;;
35632;SDS011;21754;48.216;-1.628;2023-04-08T06:22:22;7.05;;;4.25;;
35632;SDS011;21754;48.216;-1.628;2023-04-08T06:24:48;7.82;;;4.65;;
35632;SDS011;21754;48.216;-1.628;2023-04-08T06:27:14;5.07;;;3.50;;
35632;SDS011;21754;48.216;-1.628;2023-04-08T06:29:40;6.82;;;3.63;;
35632;SDS011;21754;48.216;-1.628;2023-04-08T06:32:06;4.38;;;3.97;;
35632;SDS011;21754;48.216;-1.628;2023-04-08T06:34:32;5.97;;;3.85;;
35632;SDS011;21754;48.216;-1.628;2023-04-08T06:36:58;5.97;;;4.43;;
35632;SDS011;21754;48.216;-1.628;2023-04-08T06:39:25;6.78;;;4.88;;
35632;SDS011;21754;48.216;-1.628;2023-04-08T06:41:51;14.88;;;4.47;;
35632;SDS011;21754;48.216;-1.628;2023-04-08T06:44:18;5.53;;;4.55;;
35632;SDS011;21754;48.216;-1.628;2023-04-08T06:46:44;6.57;;;3.78;;
35632;SDS011;21754;48.216;-1.628;2023-04-08T06:49:11;10.52;;;4.45;;
35632;SDS011;21754;48.216;-1.628;2023-04-08T06:51:37;8.18;;;5.38;;
35632;SDS011;21754;48.216;-1.628;2023-04-08T06:54:03;8.32;;;5.07;;
35632;SDS011;21754;48.216;-1.628;2023-04-08T06:56:29;8.60;;;6.53;;
35632;SDS011;21754;48.216;-1.628;2023-04-08T06:58:55;6.57;;;5.60;;
35632;SDS011;21754;48.216;-1.628;2023-04-08T07:01:21;6.97;;;5.47;;
35632;SDS011;21754;48.216;-1.628;2023-04-08T07:03:48;8.53;;;6.47;;
35632;SDS011;21754;48.216;-1.628;2023-04-08T07:06:15;13.90;;;5.93;;
35632;SDS011;21754;48.216;-1.628;2023-04-08T07:08:41;10.48;;;7.32;;
35632;SDS011;21754;48.216;-1.628;2023-04-08T07:11:07;10.10;;;5.78;;
35632;SDS011;21754;48.216;-1.628;2023-04-08T07:13:33;10.65;;;7.00;;
35632;SDS011;21754;48.216;-1.628;2023-04-08T07:15:59;13.45;;;7.07;;
35632;SDS011;21754;48.216;-1.628;2023-04-08T07:18:25;9.70;;;6.63;;
35632;SDS011;21754;48.216;-1.628;2023-04-08T07:20:51;14.85;;;8.55;;
35632;SDS011;21754;48.216;-1.628;2023-04-08T07:23:21;10.98;;;6.80;;
35632;SDS011;21754;48.216;-1.628;2023-04-08T07:25:47;13.07;;;8.32;;
35632;SDS011;21754;48.216;-1.628;2023-04-08T07:28:14;11.80;;;7.43;;
35632;SDS011;21754;48.216;-1.628;2023-04-08T07:30:40;10.50;;;7.40;;
35632;SDS011;21754;48.216;-1.628;2023-04-08T07:33:06;12.00;;;7.97;;
35632;SDS011;21754;48.216;-1.628;2023-04-08T07:35:32;12.18;;;7.75;;
35632;SDS011;21754;48.216;-1.628;2023-04-08T07:37:58;16.42;;;7.60;;
35632;SDS011;21754;48.216;-1.628;2023-04-08T07:40:24;17.15;;;7.47;;
35632;SDS011;21754;48.216;-1.628;2023-04-08T07:42:50;10.45;;;6.78;;
35632;SDS011;21754;48.216;-1.628;2023-04-08T07:45:15;12.98;;;7.05;;
35632;SDS011;21754;48.216;-1.628;2023-04-08T07:47:41;10.50;;;6.63;;
35632;SDS011;21754;48.216;-1.628;2023-04-08T07:50:08;14.40;;;7.55;;
35632;SDS011;21754;48.216;-1.628;2023-04-08T07:52:34;19.42;;;7.80;;
35632;SDS011;21754;48.216;-1.628;2023-04-08T07:55:00;13.77;;;8.02;;
35632;SDS011;21754;48.216;-1.628;2023-04-08T07:57:26;11.48;;;7.97;;
35632;SDS011;21754;48.216;-1.628;2023-04-08T07:59:52;17.63;;;8.55;;
35632;SDS011;21754;48.216;-1.628;2023-04-08T08:02:18;8.80;;;6.68;;
35632;SDS011;21754;48.216;-1.628;2023-04-08T08:04:44;10.82;;;6.80;;
35632;SDS011;21754;48.216;-1.628;2023-04-08T08:07:10;13.02;;;7.80;;
35632;SDS011;21754;48.216;-1.628;2023-04-08T08:09:36;13.05;;;7.00;;
35632;SDS011;21754;48.216;-1.628;2023-04-08T08:12:02;14.73;;;7.55;;
35632;SDS011;21754;48.216;-1.628;2023-04-08T08:14:28;10.48;;;6.70;;
35632;SDS011;21754;48.216;-1.628;2023-04-08T08:16:54;13.88;;;7.10;;
35632;SDS011;21754;48.216;-1.628;2023-04-08T08:19:21;25.70;;;7.28;;
35632;SDS011;21754;48.216;-1.628;2023-04-08T08:21:47;18.50;;;7.65;;
35632;SDS011;21754;48.216;-1.628;2023-04-08T08:24:13;9.02;;;6.82;;
35632;SDS011;21754;48.216;-1.628;2023-04-08T08:26:39;10.73;;;6.80;;
35632;SDS011;21754;48.216;-1.628;2023-04-08T08:29:05;8.55;;;5.88;;
35632;SDS011;21754;48.216;-1.628;2023-04-08T08:31:32;9.57;;;5.68;;
35632;SDS011;21754;48.216;-1.628;2023-04-08T08:33:58;9.38;;;6.45;;
35632;SDS011;21754;48.216;-1.628;2023-04-08T08:36:24;7.90;;;5.65;;
35632;SDS011;21754;48.216;-1.628;2023-04-08T08:38:53;12.00;;;6.70;;
35632;SDS011;21754;48.216;-1.628;2023-04-08T08:41:19;7.85;;;5.78;;
35632;SDS011;21754;48.216;-1.628;2023-04-08T08:43:46;5.63;;;4.95;;
35632;SDS011;21754;48.216;-1.628;2023-04-08T08:46:14;5.82;;;5.00;;
35632;SDS011;21754;48.216;-1.628;2023-04-08T08:48:40;8.45;;;5.47;;
35632;SDS011;21754;48.216;-1.628;2023-04-08T08:51:07;6.00;;;4.72;;
35632;SDS011;21754;48.216;-1.628;2023-04-08T08:53:33;10.23;;;5.40;;
35632;SDS011;21754;48.216;-1.628;2023-04-08T08:55:59;8.00;;;5.38;;
35632;SDS011;21754;48.216;-1.628;2023-04-08T08:58:26;6.25;;;4.85;;
35632;SDS011;21754;48.216;-1.628;2023-04-08T09:00:52;4.87;;;4.47;;
35632;SDS011;21754;48.216;-1.628;2023-04-08T09:03:21;8.45;;;4.78;;
35632;SDS011;21754;48.216;-1.628;2023-04-08T09:05:55;7.88;;;4.65;;
35632;SDS011;21754;48.216;-1.628;2023-04-08T09:10:50;6.38;;;4.72;;
35632;SDS011;21754;48.216;-1.628;2023-04-08T09:13:17;6.22;;;4.50;;
35632;SDS011;21754;48.216;-1.628;2023-04-08T09:18:28;6.20;;;4.78;;
35632;SDS011;21754;48.216;-1.628;2023-04-08T09:20:54;8.63;;;4.93;;
35632;SDS011;21754;48.216;-1.628;2023-04-08T09:23:20;17.88;;;5.38;;
35632;SDS011;21754;48.216;-1.628;2023-04-08T09:25:46;12.20;;;6.30;;
35632;SDS011;21754;48.216;-1.628;2023-04-08T09:28:18;14.38;;;6.00;;
35632;SDS011;21754;48.216;-1.628;2023-04-08T09:30:47;11.48;;;6.55;;
35632;SDS011;21754;48.216;-1.628;2023-04-08T09:33:13;8.45;;;5.72;;
35632;SDS011;21754;48.216;-1.628;2023-04-08T09:35:40;10.57;;;6.25;;
35632;SDS011;21754;48.216;-1.628;2023-04-08T09:38:07;10.98;;;5.40;;
35632;SDS011;21754;48.216;-1.628;2023-04-08T09:40:33;7.93;;;5.45;;
35632;SDS011;21754;48.216;-1.628;2023-04-08T09:43:01;9.75;;;4.75;;
35632;SDS011;21754;48.216;-1.628;2023-04-08T09:45:30;7.05;;;5.72;;
35632;SDS011;21754;48.216;-1.628;2023-04-08T09:48:04;11.90;;;4.90;;
35632;SDS011;21754;48.216;-1.628;2023-04-08T09:50:34;7.90;;;5.95;;
35632;SDS011;21754;48.216;-1.628;2023-04-08T09:53:13;15.57;;;5.47;;
35632;SDS011;21754;48.216;-1.628;2023-04-08T09:55:43;6.38;;;4.47;;
35632;SDS011;21754;48.216;-1.628;2023-04-08T09:58:18;8.02;;;4.75;;
35632;SDS011;21754;48.216;-1.628;2023-04-08T10:00:48;5.70;;;4.82;;
35632;SDS011;21754;48.216;-1.628;2023-04-08T10:05:44;4.93;;;4.00;;
35632;SDS011;21754;48.216;-1.628;2023-04-08T10:08:11;6.47;;;4.57;;
35632;SDS011;21754;48.216;-1.628;2023-04-08T10:10:38;4.45;;;4.05;;
35632;SDS011;21754;48.216;-1.628;2023-04-08T10:13:05;4.85;;;3.72;;
35632;SDS011;21754;48.216;-1.628;2023-04-08T10:15:34;3.53;;;3.23;;
35632;SDS011;21754;48.216;-1.628;2023-04-08T10:23:13;3.88;;;2.72;;
35632;SDS011;21754;48.216;-1.628;2023-04-08T10:25:39;5.20;;;2.55;;
35632;SDS011;21754;48.216;-1.628;2023-04-08T10:33:11;2.63;;;1.92;;
35632;SDS011;21754;48.216;-1.628;2023-04-08T10:35:40;5.55;;;2.17;;
35632;SDS011;21754;48.216;-1.628;2023-04-08T10:38:07;2.58;;;1.63;;
35632;SDS011;21754;48.216;-1.628;2023-04-08T10:40:37;1.65;;;1.27;;
35632;SDS011;21754;48.216;-1.628;2023-04-08T10:43:03;18.63;;;1.95;;
35632;SDS011;21754;48.216;-1.628;2023-04-08T10:45:30;1.00;;;1.00;;
35632;SDS011;21754;48.216;-1.628;2023-04-08T10:47:56;2.15;;;1.00;;
35632;SDS011;21754;48.216;-1.628;2023-04-08T10:50:22;3.53;;;1.10;;
35632;SDS011;21754;48.216;-1.628;2023-04-08T10:52:52;3.42;;;1.30;;
35632;SDS011;21754;48.216;-1.628;2023-04-08T10:55:22;1.40;;;1.27;;
35632;SDS011;21754;48.216;-1.628;2023-04-08T10:57:54;8.38;;;1.52;;
35632;SDS011;21754;48.216;-1.628;2023-04-08T11:00:33;1.35;;;1.25;;
35632;SDS011;21754;48.216;-1.628;2023-04-08T11:03:00;1.85;;;1.75;;
35632;SDS011;21754;48.216;-1.628;2023-04-08T11:05:26;7.25;;;2.20;;
35632;SDS011;21754;48.216;-1.628;2023-04-08T11:07:52;3.00;;;2.10;;
35632;SDS011;21754;48.216;-1.628;2023-04-08T11:10:18;2.75;;;1.52;;
35632;SDS011;21754;48.216;-1.628;2023-04-08T11:12:45;2.45;;;1.80;;
35632;SDS011;21754;48.216;-1.628;2023-04-08T11:15:11;3.00;;;2.22;;
35632;SDS011;21754;48.216;-1.628;2023-04-08T11:17:38;3.30;;;1.65;;
35632;SDS011;21754;48.216;-1.628;2023-04-08T11:20:04;2.22;;;1.67;;
35632;SDS011;21754;48.216;-1.628;2023-04-08T11:22:31;2.03;;;1.60;;
35632;SDS011;21754;48.216;-1.628;2023-04-08T11:24:58;6.35;;;1.90;;
35632;SDS011;21754;48.216;-1.628;2023-04-08T11:27:25;4.10;;;1.77;;
35632;SDS011;21754;48.216;-1.628;2023-04-08T11:29:52;6.20;;;1.70;;
35632;SDS011;21754;48.216;-1.628;2023-04-08T11:32:20;4.38;;;2.47;;
35632;SDS011;21754;48.216;-1.628;2023-04-08T11:34:47;2.40;;;1.88;;
35632;SDS011;21754;48.216;-1.628;2023-04-08T11:37:13;1.60;;;1.50;;
35632;SDS011;21754;48.216;-1.628;2023-04-08T11:39:42;1.20;;;1.10;;
35632;SDS011;21754;48.216;-1.628;2023-04-08T11:42:08;4.53;;;1.55;;
35632;SDS011;21754;48.216;-1.628;2023-04-08T11:44:34;2.83;;;2.25;;
35632;SDS011;21754;48.216;-1.628;2023-04-08T11:47:00;8.88;;;2.30;;
35632;SDS011;21754;48.216;-1.628;2023-04-08T11:49:27;5.05;;;1.73;;
35632;SDS011;21754;48.216;-1.628;2023-04-08T11:51:54;2.47;;;1.35;;
35632;SDS011;21754;48.216;-1.628;2023-04-08T11:54:27;1.88;;;1.20;;
35632;SDS011;21754;48.216;-1.628;2023-04-08T11:56:53;1.73;;;1.63;;
35632;SDS011;21754;48.216;-1.628;2023-04-08T11:59:20;4.38;;;1.60;;
35632;SDS011;21754;48.216;-1.628;2023-04-08T12:01:46;7.43;;;2.70;;
35632;SDS011;21754;48.216;-1.628;2023-04-08T12:04:12;4.95;;;2.00;;
35632;SDS011;21754;48.216;-1.628;2023-04-08T12:06:38;1.83;;;1.73;;
35632;SDS011;21754;48.216;-1.628;2023-04-08T12:09:07;2.03;;;1.92;;
35632;SDS011;21754;48.216;-1.628;2023-04-08T12:11:33;1.48;;;1.35;;
35632;SDS011;21754;48.216;-1.628;2023-04-08T12:13:59;2.85;;;2.38;;
35632;SDS011;21754;48.216;-1.628;2023-04-08T12:16:25;1.60;;;1.48;;
35632;SDS011;21754;48.216;-1.628;2023-04-08T12:18:51;1.55;;;1.17;;
35632;SDS011;21754;48.216;-1.628;2023-04-08T12:21:17;2.10;;;1.73;;
35632;SDS011;21754;48.216;-1.628;2023-04-08T12:23:43;1.25;;;1.15;;
35632;SDS011;21754;48.216;-1.628;2023-04-08T12:26:09;2.05;;;1.85;;
35632;SDS011;21754;48.216;-1.628;2023-04-08T12:28:35;2.38;;;1.52;;
35632;SDS011;21754;48.216;-1.628;2023-04-08T12:31:02;2.58;;;1.50;;
35632;SDS011;21754;48.216;-1.628;2023-04-08T12:33:28;2.75;;;1.33;;
35632;SDS011;21754;48.216;-1.628;2023-04-08T12:35:54;7.75;;;1.42;;
35632;SDS011;21754;48.216;-1.628;2023-04-08T12:38:23;1.45;;;1.35;;
35632;SDS011;21754;48.216;-1.628;2023-04-08T12:40:49;2.45;;;1.33;;
35632;SDS011;21754;48.216;-1.628;2023-04-08T12:43:15;4.07;;;1.80;;
35632;SDS011;21754;48.216;-1.628;2023-04-08T12:45:41;3.22;;;1.60;;
35632;SDS011;21754;48.216;-1.628;2023-04-08T12:48:07;5.95;;;1.67;;
35632;SDS011;21754;48.216;-1.628;2023-04-08T12:50:33;3.33;;;1.25;;
35632;SDS011;21754;48.216;-1.628;2023-04-08T12:52:59;3.10;;;1.02;;
35632;SDS011;21754;48.216;-1.628;2023-04-08T12:55:25;3.53;;;2.45;;
35632;SDS011;21754;48.216;-1.628;2023-04-08T12:57:51;2.70;;;1.27;;
35632;SDS011;21754;48.216;-1.628;2023-04-08T13:00:18;1.45;;;1.35;;
35632;SDS011;21754;48.216;-1.628;2023-04-08T13:02:44;2.47;;;1.30;;
35632;SDS011;21754;48.216;-1.628;2023-04-08T13:05:10;7.75;;;1.50;;
35632;SDS011;21754;48.216;-1.628;2023-04-08T13:07:36;3.72;;;1.67;;
35632;SDS011;21754;48.216;-1.628;2023-04-08T13:10:02;6.88;;;1.40;;
35632;SDS011;21754;48.216;-1.628;2023-04-08T13:12:30;5.25;;;1.15;;
35632;SDS011;21754;48.216;-1.628;2023-04-08T13:14:57;2.08;;;1.77;;
35632;SDS011;21754;48.216;-1.628;2023-04-08T13:17:24;0.90;;;0.90;;
35632;SDS011;21754;48.216;-1.628;2023-04-08T13:19:50;1.55;;;1.45;;
35632;SDS011;21754;48.216;-1.628;2023-04-08T13:22:16;4.18;;;1.23;;
35632;SDS011;21754;48.216;-1.628;2023-04-08T13:24:42;1.30;;;1.17;;
35632;SDS011;21754;48.216;-1.628;2023-04-08T13:27:08;1.52;;;1.42;;
35632;SDS011;21754;48.216;-1.628;2023-04-08T13:29:34;1.98;;;1.25;;
35632;SDS011;21754;48.216;-1.628;2023-04-08T13:32:00;4.97;;;1.40;;
35632;SDS011;21754;48.216;-1.628;2023-04-08T13:34:26;1.73;;;1.30;;
35632;SDS011;21754;48.216;-1.628;2023-04-08T13:36:52;1.75;;;1.30;;
35632;SDS011;21754;48.216;-1.628;2023-04-08T13:39:18;3.67;;;1.45;;
35632;SDS011;21754;48.216;-1.628;2023-04-08T13:41:44;1.15;;;1.10;;
35632;SDS011;21754;48.216;-1.628;2023-04-08T13:44:10;2.42;;;1.10;;
35632;SDS011;21754;48.216;-1.628;2023-04-08T13:46:36;2.17;;;1.17;;
35632;SDS011;21754;48.216;-1.628;2023-04-08T13:49:03;0.80;;;0.80;;
35632;SDS011;21754;48.216;-1.628;2023-04-08T13:51:29;1.80;;;0.90;;
35632;SDS011;21754;48.216;-1.628;2023-04-08T13:53:55;11.20;;;1.48;;
35632;SDS011;21754;48.216;-1.628;2023-04-08T13:56:21;2.45;;;1.42;;
35632;SDS011;21754;48.216;-1.628;2023-04-08T13:58:47;1.83;;;1.45;;
35632;SDS011;21754;48.216;-1.628;2023-04-08T14:01:13;2.40;;;1.42;;
35632;SDS011;21754;48.216;-1.628;2023-04-08T14:03:40;1.92;;;0.90;;
35632;SDS011;21754;48.216;-1.628;2023-04-08T14:06:06;2.80;;;1.08;;
35632;SDS011;21754;48.216;-1.628;2023-04-08T14:08:32;2.83;;;1.33;;
35632;SDS011;21754;48.216;-1.628;2023-04-08T14:10:58;1.45;;;1.25;;
35632;SDS011;21754;48.216;-1.628;2023-04-08T14:13:24;2.38;;;1.10;;
35632;SDS011;21754;48.216;-1.628;2023-04-08T14:15:50;1.30;;;1.13;;
35632;SDS011;21754;48.216;-1.628;2023-04-08T14:18:18;1.30;;;1.20;;
35632;SDS011;21754;48.216;-1.628;2023-04-08T14:20:44;1.75;;;1.65;;
35632;SDS011;21754;48.216;-1.628;2023-04-08T14:23:11;1.10;;;1.00;;
35632;SDS011;21754;48.216;-1.628;2023-04-08T14:25:37;1.25;;;1.15;;
35632;SDS011;21754;48.216;-1.628;2023-04-08T14:28:03;1.17;;;1.05;;
35632;SDS011;21754;48.216;-1.628;2023-04-08T14:30:30;3.67;;;1.42;;
35632;SDS011;21754;48.216;-1.628;2023-04-08T14:32:57;2.58;;;1.08;;
35632;SDS011;21754;48.216;-1.628;2023-04-08T14:37:50;1.38;;;1.08;;
35632;SDS011;21754;48.216;-1.628;2023-04-08T14:40:16;2.42;;;1.20;;
35632;SDS011;21754;48.216;-1.628;2023-04-08T14:42:42;1.73;;;1.63;;
35632;SDS011;21754;48.216;-1.628;2023-04-08T14:45:09;5.45;;;1.33;;
35632;SDS011;21754;48.216;-1.628;2023-04-08T14:47:35;1.20;;;1.10;;
35632;SDS011;21754;48.216;-1.628;2023-04-08T14:50:01;6.97;;;1.10;;
35632;SDS011;21754;48.216;-1.628;2023-04-08T14:52:27;3.72;;;1.50;;
35632;SDS011;21754;48.216;-1.628;2023-04-08T14:54:53;2.78;;;1.15;;
35632;SDS011;21754;48.216;-1.628;2023-04-08T14:57:19;2.15;;;0.85;;